Vancouver, Canada
Current Conditions -  °F | °C
As of 8:10 AM on Monday 26 Jan 2015 (Local Time) from CYVR Reporting Station
Moderate Fog Moderate Fog  
Wind Chill:   Ceiling: 200
Heat Index:   Visibility: 0.12mi
Dew Point:   Wind: 6mph
Humidity: 100%   Direction: 90°E
Pressure: 29.92"   Gusts: NA
Location:  49.26°N, 123.11°W
Report Text: CYVR 261610Z 09005KT 1/8SM FG VV002 06/06 A2992 RMK FG8 WND ESTD SLP131
Loading
Personal Weather Stations






























Interactive Weather Map New forecast layout! Learn more

10-Day Weather Forecast

Advertisements
Track Severe Weather on mobile